createdAt,value
2023-05-13T00:02:59.667Z,12.40
2023-05-13T00:06:24.117Z,12.30
2023-05-13T00:14:30.624Z,12.38
2023-05-13T00:17:49.179Z,12.19
2023-05-13T00:20:56.792Z,12.18
2023-05-13T00:24:19.696Z,12.17
2023-05-13T00:27:33.361Z,12.19
2023-05-13T00:30:52.636Z,12.12
2023-05-13T00:34:11.700Z,12.23
2023-05-13T00:37:38.339Z,12.18
2023-05-13T00:41:10.621Z,12.22
2023-05-13T00:44:47.683Z,12.08
2023-05-13T00:48:14.786Z,12.21
2023-05-13T00:51:53.508Z,12.16
2023-05-13T00:55:26.190Z,12.28
2023-05-13T00:58:54.689Z,12.35
2023-05-13T01:02:27.623Z,12.58
2023-05-13T01:05:36.607Z,12.31
2023-05-13T01:09:02.679Z,12.15
2023-05-13T01:12:35.628Z,12.53
2023-05-13T01:17:19.438Z,12.18
2023-05-13T01:20:47.021Z,12.23
2023-05-13T01:24:04.866Z,11.98
2023-05-13T01:27:13.857Z,12.07
2023-05-13T01:30:42.746Z,12.22
2023-05-13T01:34:47.460Z,12.53
2023-05-13T01:38:08.514Z,12.55
2023-05-13T01:41:26.987Z,12.15
2023-05-13T01:44:51.999Z,12.16
2023-05-13T01:48:11.910Z,12.55
2023-05-13T01:51:36.861Z,12.72
2023-05-13T01:54:55.899Z,12.11
2023-05-13T01:58:14.546Z,12.40
2023-05-13T02:01:28.932Z,12.44
2023-05-13T02:05:07.540Z,12.33
2023-05-13T02:08:27.610Z,12.21
2023-05-13T02:16:16.627Z,12.23
2023-05-13T02:19:21.924Z,12.33
2023-05-13T02:26:41.928Z,12.19
2023-05-13T02:29:46.211Z,12.13
2023-05-13T02:32:55.734Z,11.89
2023-05-13T02:36:01.702Z,11.80
2023-05-13T02:39:53.548Z,12.04
2023-05-13T02:42:59.329Z,12.14
2023-05-13T02:46:41.153Z,11.93
2023-05-13T02:50:42.605Z,11.84
2023-05-13T02:54:04.663Z,11.60
2023-05-13T02:57:36.952Z,11.83
2023-05-13T03:00:51.940Z,11.47
2023-05-13T03:04:56.969Z,11.39
2023-05-13T03:08:24.119Z,11.44
2023-05-13T03:11:53.519Z,11.46
2023-05-13T03:15:17.828Z,11.44
2023-05-13T03:18:31.748Z,11.47
2023-05-13T03:21:48.906Z,11.52
2023-05-13T03:25:15.529Z,11.44
2023-05-13T03:28:45.565Z,11.83
2023-05-13T03:31:58.475Z,11.77
2023-05-13T03:35:14.238Z,11.90
2023-05-13T03:38:31.888Z,11.50
2023-05-13T03:41:41.258Z,11.57
2023-05-13T03:44:52.733Z,11.83
2023-05-13T03:48:16.525Z,11.59
2023-05-13T03:51:21.199Z,11.40
2023-05-13T03:54:39.212Z,11.46
2023-05-13T04:02:03.587Z,12.11
2023-05-13T04:05:27.567Z,12.05
2023-05-13T04:08:34.720Z,12.14
2023-05-13T04:11:51.365Z,12.17
2023-05-13T04:15:01.758Z,12.17
2023-05-13T04:18:05.695Z,12.11
2023-05-13T04:22:08.402Z,12.21
2023-05-13T04:25:14.952Z,12.30
2023-05-13T04:45:57.008Z,12.03
2023-05-13T08:46:44.600Z,12.77
2023-05-13T08:49:54.885Z,13.35
2023-05-13T08:53:02.794Z,13.04
2023-05-13T08:56:44.823Z,12.97
2023-05-13T08:59:51.582Z,13.36
2023-05-13T09:02:55.177Z,13.26
2023-05-13T09:06:11.629Z,13.11
2023-05-13T09:09:16.376Z,13.26
2023-05-13T09:12:55.786Z,13.14
2023-05-13T09:16:22.751Z,13.29
2023-05-13T09:19:51.769Z,13.19
2023-05-13T09:23:16.033Z,13.32
2023-05-13T09:26:37.615Z,13.66
2023-05-13T09:30:00.977Z,13.67
2023-05-13T09:33:25.662Z,14.40
2023-05-13T09:36:30.164Z,14.77
2023-05-13T09:39:55.674Z,14.56
2023-05-13T09:46:50.788Z,15.17
2023-05-13T09:50:12.977Z,15.45
2023-05-13T09:53:33.766Z,15.32
2023-05-13T09:56:57.132Z,15.22
2023-05-13T10:00:17.841Z,15.41
2023-05-13T10:03:37.430Z,15.14
2023-05-13T10:06:50.482Z,15.17
2023-05-13T10:10:14.062Z,15.31
2023-05-13T10:14:15.025Z,15.20
2023-05-13T10:17:28.717Z,15.59
2023-05-13T10:20:32.248Z,14.92
2023-05-13T10:23:53.371Z,15.17
2023-05-13T10:27:07.415Z,15.62
2023-05-13T10:30:26.613Z,15.32
2023-05-13T10:33:59.971Z,15.93
2023-05-13T10:37:28.716Z,15.80
2023-05-13T10:40:52.798Z,15.87
2023-05-13T10:44:13.625Z,15.73
2023-05-13T10:47:22.705Z,15.36
2023-05-13T10:50:31.281Z,15.29
2023-05-13T10:54:12.423Z,15.63
2023-05-13T10:57:28.770Z,15.74
2023-05-13T11:00:54.761Z,15.49
2023-05-13T11:04:10.271Z,15.64
2023-05-13T11:07:17.400Z,15.89
2023-05-13T11:10:32.741Z,15.63
2023-05-13T11:13:41.225Z,15.41
2023-05-13T11:17:11.264Z,15.20
2023-05-13T11:20:26.397Z,15.39
2023-05-13T11:23:35.043Z,15.69
2023-05-13T11:26:47.863Z,15.79
2023-05-13T11:29:58.056Z,15.81
2023-05-13T11:33:03.141Z,15.63
2023-05-13T11:36:20.345Z,15.30
2023-05-13T11:39:38.241Z,15.40
2023-05-13T11:42:45.999Z,15.10
2023-05-13T11:45:55.826Z,15.09
2023-05-13T11:49:07.477Z,14.70
2023-05-13T11:57:13.252Z,15.37
2023-05-13T12:00:46.845Z,15.11
2023-05-13T12:04:16.321Z,15.19
2023-05-13T12:07:30.773Z,14.97
2023-05-13T12:10:51.383Z,15.10
2023-05-13T12:14:30.602Z,15.12
2023-05-13T12:17:58.643Z,15.30
2023-05-13T12:21:21.826Z,15.24
2023-05-13T12:24:28.917Z,15.22
2023-05-13T12:27:33.320Z,15.18
2023-05-13T12:30:44.208Z,15.54
2023-05-13T12:33:54.111Z,15.67
2023-05-13T12:38:03.132Z,15.73
2023-05-13T12:41:54.954Z,15.72
2023-05-13T12:49:59.813Z,15.56
2023-05-13T12:53:16.116Z,15.81
2023-05-13T13:02:13.565Z,15.67
2023-05-13T13:05:41.424Z,15.68
2023-05-13T13:15:52.251Z,15.83
2023-05-13T16:32:36.810Z,15.78
2023-05-13T16:35:55.096Z,15.94
2023-05-13T16:44:01.102Z,15.77
2023-05-13T16:47:14.312Z,15.88
2023-05-13T16:51:00.518Z,15.91
2023-05-13T16:54:10.850Z,16.05
2023-05-13T17:01:50.094Z,16.03
2023-05-13T17:05:19.743Z,15.82
2023-05-13T17:08:57.457Z,15.94
2023-05-13T17:14:00.241Z,15.76
2023-05-13T17:17:12.509Z,15.71
2023-05-13T17:20:23.469Z,15.60
2023-05-13T17:23:45.681Z,15.36
2023-05-13T17:27:07.927Z,15.66
2023-05-13T17:34:53.186Z,15.58
2023-05-13T17:48:27.213Z,15.40
2023-05-13T17:56:32.912Z,15.54
2023-05-13T17:59:40.789Z,15.53
2023-05-13T18:09:57.240Z,15.34
2023-05-13T18:13:42.053Z,15.30
2023-05-13T18:16:56.033Z,15.21
2023-05-13T18:20:25.377Z,15.09
2023-05-13T18:23:52.398Z,15.34
2023-05-13T18:38:16.662Z,14.88
2023-05-13T18:41:36.899Z,14.97
2023-05-13T18:46:23.317Z,15.08
2023-05-13T18:55:22.826Z,14.96
2023-05-13T18:59:40.294Z,14.97
2023-05-13T19:08:33.919Z,15.03
2023-05-13T19:12:27.258Z,14.90
2023-05-13T19:21:01.295Z,14.74
2023-05-13T19:25:19.885Z,14.95
2023-05-13T19:28:35.088Z,14.83
2023-05-13T19:36:36.663Z,14.79
2023-05-13T19:44:49.989Z,14.97
2023-05-13T19:48:59.523Z,14.91
2023-05-13T19:56:16.929Z,14.75
2023-05-13T20:05:17.225Z,14.67
2023-05-13T20:26:22.530Z,14.49
2023-05-13T20:30:07.712Z,14.46
2023-05-13T20:33:41.284Z,14.60
2023-05-13T20:37:19.686Z,14.44
2023-05-13T20:42:07.416Z,14.53
2023-05-13T20:45:40.533Z,14.52
2023-05-13T20:49:39.239Z,14.48
2023-05-13T20:58:28.820Z,14.23
2023-05-13T21:03:13.625Z,14.00
2023-05-13T21:12:26.606Z,13.99
2023-05-13T21:15:47.361Z,13.95
2023-05-13T21:18:53.388Z,13.96
2023-05-13T21:46:46.985Z,13.86
2023-05-13T21:49:50.942Z,13.82
2023-05-13T21:57:55.638Z,13.82
2023-05-13T22:01:18.801Z,13.93
2023-05-13T22:04:47.193Z,13.84
2023-05-13T22:08:42.238Z,13.83
2023-05-13T22:11:48.228Z,13.80
2023-05-13T22:14:53.061Z,13.73
2023-05-13T22:19:08.835Z,13.55
2023-05-13T22:27:51.651Z,13.48
2023-05-13T22:31:03.924Z,13.39
2023-05-13T22:34:17.133Z,13.20
2023-05-13T22:37:29.925Z,13.36
2023-05-13T22:41:02.617Z,13.28
2023-05-13T23:06:51.842Z,13.26
2023-05-13T23:09:56.664Z,13.20
2023-05-13T23:13:05.796Z,13.45
2023-05-13T23:25:44.994Z,13.37
2023-05-13T23:28:50.069Z,13.34
2023-05-13T23:33:31.682Z,13.50
2023-05-13T23:36:41.292Z,13.45
2023-05-13T23:39:56.635Z,13.50
2023-05-13T23:43:22.659Z,13.53
2023-05-13T23:46:42.979Z,13.47
2023-05-13T23:49:58.996Z,13.44
2023-05-13T23:53:34.374Z,13.37
